Airfield :
LOGIN :

Register | Disclaimer

   EN    FR    IT 

 










Legend :    VFR   Marginal VFR   IFR   Intensive IFR   Very Intensive IFR
Visi :
Ceiling :
>= 8 km
>= 3000ft
5 to 8 km
1000 to 3000 ft
1500m to 5 km
500 to 1000 ft
800 to 1500m
200 to 500 ft
< 800m
< 200 ft
Symbols :   Thunderstorms  Fog  Heavy snow  Heavy precipitations  Wind > 20 kt
SIGMETs :     Misc.  Thunderstorms  Icing  Turbulence  Mountain Waves  Volcanic Ashes






- Airport Elevation : 909 ft
- IATA code : KSF


EDVK - Kassel Calden

CURRENT METAR :
  • 280520Z AUTO 21004KT 0500 R27/0800N // OVC002/// M00/M00 Q1020

EXPIRED METARs :
  • 280450Z AUTO 23003KT 0500 0450 R27/0900N // OVC002/// M00/M00 Q1020
  • 280420Z AUTO VRB02KT 0650 0500 R27/1100D // OVC002/// M00/M00 Q1019
  • 280350Z AUTO VRB01KT 0450 R27/0600N // OVC002/// M00/M00 Q1019
  • 280320Z AUTO 17003KT 140V200 0400 0350 R27/0600N // OVC002/// 00/M00 Q1019
  • 280250Z AUTO VRB02KT 0650 0500 R27/0900D // OVC002/// 00/M00 Q1019
  • 280220Z AUTO VRB02KT 0900 0500 R27/P2000N // OVC001/// 00/M00 Q1019
  • 280150Z AUTO 00000KT 3200 // FEW001/// BKN003/// 00/M00 Q1019
  • 280120Z AUTO VRB02KT 3700 // SCT004/// M00/M01 Q1019
  • 280050Z AUTO 27003KT 4300 // BKN004/// M00/M01 Q1019

TAF TAF EDVK
Valid from the 28 at 06:00 until the 28 at 15:00 UTC


280500Z 2806/2815 VRB03KT 0600 FG OVC001
TEMPO 2806/2809 0200
BECMG 2808/2810 6000 BKN008
BECMG 2810/2813 SCT008



MET'MAP, your aeronautical weather chart ! - Copyright ORBIFLY December 2007 - Disclaimer

ORBIFLY MET'MAP TEAM :

Programming & Development : Alexandra Zaïnal
Original concept : Baudouin d'Aumeries
Technical & hardware support : Manuel Goepfert
Assistance : Marc-Olivier Méhu




SOURCES & CREDITS :

   NOAA